createdAt,value
2022-08-28T00:02:09.613Z,99285.66
2022-08-28T00:04:37.586Z,99295.09
2022-08-28T00:07:06.911Z,99289.09
2022-08-28T00:09:34.875Z,99283.31
2022-08-28T00:12:02.869Z,99286.94
2022-08-28T00:14:30.967Z,99299.13
2022-08-28T00:16:59.016Z,99289.97
2022-08-28T00:19:27.290Z,99274.53
2022-08-28T00:21:55.224Z,99253.00
2022-08-28T00:24:24.506Z,99263.59
2022-08-28T00:27:09.980Z,99273.44
2022-08-28T00:29:39.070Z,99277.03
2022-08-28T00:32:08.827Z,99289.34
2022-08-28T00:34:36.948Z,99299.03
2022-08-28T00:37:04.953Z,99308.56
2022-08-28T00:39:34.539Z,99332.22
2022-08-28T00:42:02.504Z,99333.75
2022-08-28T00:44:31.184Z,99347.91
2022-08-28T00:47:00.177Z,99362.34
2022-08-28T00:49:31.145Z,99378.63
2022-08-28T00:52:12.737Z,99395.22
2022-08-28T00:54:58.422Z,99397.16
2022-08-28T00:57:30.460Z,99396.19
2022-08-28T00:59:58.644Z,99403.72
2022-08-28T01:02:27.666Z,99406.31
2022-08-28T01:04:56.558Z,99414.38
2022-08-28T01:07:24.828Z,99417.13
2022-08-28T01:09:56.488Z,99428.28
2022-08-28T01:12:28.064Z,99427.41
2022-08-28T01:14:59.954Z,99437.81
2022-08-28T01:17:31.235Z,99455.78
2022-08-28T01:20:03.743Z,99461.44
2022-08-28T01:22:36.846Z,99462.16
2022-08-28T01:25:10.441Z,99453.53
2022-08-28T01:27:41.782Z,99438.06
2022-08-28T01:30:12.093Z,99420.31
2022-08-28T01:32:42.495Z,99407.38
2022-08-28T01:35:13.441Z,99377.97
2022-08-28T01:37:42.226Z,99370.31
2022-08-28T01:40:15.154Z,99369.50
2022-08-28T01:42:44.768Z,99368.06
2022-08-28T01:45:15.395Z,99364.66
2022-08-28T01:47:44.800Z,99371.00
2022-08-28T01:50:15.972Z,99365.63
2022-08-28T01:52:43.980Z,99361.00
2022-08-28T01:55:14.055Z,99349.59
2022-08-28T01:57:46.485Z,99328.34
2022-08-28T02:00:16.013Z,99334.06
2022-08-28T02:02:44.316Z,99340.63
2022-08-28T02:05:13.262Z,99347.09
2022-08-28T02:07:41.484Z,99354.59
2022-08-28T02:10:11.917Z,99352.03
2022-08-28T02:12:41.265Z,99332.59
2022-08-28T02:15:10.049Z,99327.50
2022-08-28T02:17:37.965Z,99316.34
2022-08-28T02:20:07.432Z,99309.31
2022-08-28T02:22:36.892Z,99294.13
2022-08-28T02:25:06.245Z,99283.28
2022-08-28T02:27:34.204Z,99278.16
2022-08-28T02:30:03.437Z,99275.78
2022-08-28T02:32:31.364Z,99265.69
2022-08-28T02:34:59.265Z,99264.88
2022-08-28T02:37:27.182Z,99267.56
2022-08-28T02:39:57.308Z,99273.63
2022-08-28T02:42:26.304Z,99259.50
2022-08-28T02:44:54.193Z,99266.28
2022-08-28T02:47:23.444Z,99269.72
2022-08-28T02:49:51.297Z,99267.97
2022-08-28T02:52:19.616Z,99266.19
2022-08-28T02:54:47.511Z,99265.44
2022-08-28T02:57:15.367Z,99267.19
2022-08-28T02:59:43.952Z,99266.53
2022-08-28T03:02:12.023Z,99254.91
2022-08-28T03:04:41.408Z,99258.34
2022-08-28T03:07:11.704Z,99258.63
2022-08-28T03:09:41.479Z,99248.44
2022-08-28T03:12:10.637Z,99254.34
2022-08-28T03:14:38.572Z,99247.59
2022-08-28T03:17:07.326Z,99243.41
2022-08-28T03:19:35.933Z,99231.63
2022-08-28T03:22:05.457Z,99230.84
2022-08-28T03:24:33.220Z,99229.22
2022-08-28T03:27:01.769Z,99229.16
2022-08-28T03:29:29.718Z,99229.03
2022-08-28T03:31:57.753Z,99229.03
2022-08-28T03:34:25.662Z,99230.75
2022-08-28T03:36:53.520Z,99226.47
2022-08-28T03:39:22.791Z,99227.25
2022-08-28T03:41:51.432Z,99227.06
2022-08-28T03:44:19.329Z,99230.38
2022-08-28T03:46:47.282Z,99217.63
2022-08-28T03:49:15.159Z,99224.44
2022-08-28T03:51:45.041Z,99222.97
2022-08-28T03:54:13.005Z,99225.66
2022-08-28T03:56:43.425Z,99233.66
2022-08-28T03:59:11.353Z,99236.59
2022-08-28T04:01:39.408Z,99238.88
2022-08-28T04:04:07.526Z,99251.09
2022-08-28T04:06:36.122Z,99244.75
2022-08-28T04:09:04.539Z,99252.56
2022-08-28T04:11:32.902Z,99251.84
2022-08-28T04:14:02.097Z,99258.09
2022-08-28T04:16:30.263Z,99260.00
2022-08-28T04:18:59.192Z,99263.53
2022-08-28T04:21:28.039Z,99266.03
2022-08-28T04:23:56.645Z,99268.56
2022-08-28T04:26:27.204Z,99272.78
2022-08-28T04:28:56.391Z,99260.31
2022-08-28T04:31:32.054Z,99262.03
2022-08-28T04:34:01.242Z,99271.34
2022-08-28T04:36:29.797Z,99270.34
2022-08-28T04:38:58.542Z,99272.03
2022-08-28T04:41:27.613Z,99273.75
2022-08-28T04:43:57.408Z,99269.50
2022-08-28T04:46:31.172Z,99272.16
2022-08-28T04:48:59.743Z,99257.78
2022-08-28T04:51:27.983Z,99259.44
2022-08-28T04:53:55.875Z,99251.75
2022-08-28T04:56:23.868Z,99257.66
2022-08-28T04:58:51.877Z,99239.84
2022-08-28T05:01:24.337Z,99253.19
2022-08-28T05:03:57.901Z,99257.34
2022-08-28T05:06:28.091Z,99253.88
2022-08-28T05:08:57.515Z,99261.56
2022-08-28T05:11:33.417Z,99270.06
2022-08-28T05:14:05.168Z,99265.84
2022-08-28T05:16:34.566Z,99267.41
2022-08-28T05:19:04.605Z,99266.47
2022-08-28T05:21:32.676Z,99270.59
2022-08-28T05:24:00.625Z,99267.97
2022-08-28T05:26:29.913Z,99269.63
2022-08-28T05:28:59.201Z,99262.31
2022-08-28T05:31:28.957Z,99257.22
2022-08-28T05:33:56.953Z,99265.84
2022-08-28T05:36:32.446Z,99268.09
2022-08-28T05:39:02.322Z,99265.38
2022-08-28T05:41:31.675Z,99279.09
2022-08-28T05:44:02.815Z,99272.31
2022-08-28T05:46:31.435Z,99277.97
2022-08-28T05:48:59.645Z,99275.13
2022-08-28T05:51:29.664Z,99283.16
2022-08-28T05:53:58.575Z,99283.69
2022-08-28T05:56:29.640Z,99282.19
2022-08-28T05:58:58.055Z,99291.84
2022-08-28T06:01:28.493Z,99293.69
2022-08-28T06:03:59.129Z,99278.94
2022-08-28T06:06:31.584Z,99282.72
2022-08-28T06:09:01.741Z,99291.84
2022-08-28T06:11:31.263Z,99296.34
2022-08-28T06:14:01.794Z,99295.75
2022-08-28T06:16:31.785Z,99296.50
2022-08-28T06:19:00.392Z,99299.03
2022-08-28T06:21:29.919Z,99298.94
2022-08-28T06:23:58.117Z,99300.22
2022-08-28T06:26:26.448Z,99304.69
2022-08-28T06:28:54.475Z,99304.06
2022-08-28T06:31:24.627Z,99304.06
2022-08-28T06:33:54.539Z,99293.44
2022-08-28T06:36:22.711Z,99299.56
2022-08-28T06:38:51.967Z,99303.34
2022-08-28T06:41:19.901Z,99299.59
2022-08-28T06:43:47.796Z,99298.66
2022-08-28T06:46:15.842Z,99301.19
2022-08-28T06:48:43.907Z,99313.88
2022-08-28T06:51:13.744Z,99315.31
2022-08-28T06:53:43.268Z,99317.53
2022-08-28T06:56:25.446Z,99313.69
2022-08-28T06:58:56.419Z,99302.56
2022-08-28T07:01:29.202Z,99306.56
2022-08-28T07:04:00.335Z,99306.38
2022-08-28T07:06:31.450Z,99306.22
2022-08-28T07:08:59.482Z,99315.69
2022-08-28T07:11:31.390Z,99300.44
2022-08-28T07:14:00.456Z,99313.69
2022-08-28T07:16:30.447Z,99314.63
2022-08-28T07:18:58.897Z,99329.50
2022-08-28T07:21:27.434Z,99324.69
2022-08-28T07:23:56.094Z,99331.78
2022-08-28T07:26:26.128Z,99336.41
2022-08-28T07:28:59.531Z,99338.59
2022-08-28T07:31:41.143Z,99333.44
2022-08-28T07:34:09.751Z,99328.28
2022-08-28T07:36:38.806Z,99332.47
2022-08-28T07:39:07.743Z,99325.53
2022-08-28T07:41:39.153Z,99340.38
2022-08-28T07:44:27.252Z,99328.28
2022-08-28T07:46:55.928Z,99333.06
2022-08-28T07:49:25.303Z,99334.72
2022-08-28T07:51:54.042Z,99336.59
2022-08-28T07:54:22.676Z,99341.72
2022-08-28T07:56:51.090Z,99342.41
2022-08-28T07:59:21.051Z,99343.38
2022-08-28T08:01:51.886Z,99341.63
2022-08-28T08:04:21.767Z,99338.28
2022-08-28T08:06:53.325Z,99340.88
2022-08-28T08:09:25.060Z,99345.28
2022-08-28T08:11:54.219Z,99349.50
2022-08-28T08:14:24.906Z,99349.28
2022-08-28T08:16:54.144Z,99351.59
2022-08-28T08:19:22.741Z,99346.72
2022-08-28T08:21:53.239Z,99360.31
2022-08-28T08:24:25.815Z,99362.53
2022-08-28T08:27:00.385Z,99359.66
2022-08-28T08:29:32.419Z,99368.09
2022-08-28T08:32:05.560Z,99367.09
2022-08-28T08:34:35.270Z,99361.94
2022-08-28T08:37:03.445Z,99368.53
2022-08-28T08:39:31.786Z,99377.81
2022-08-28T08:42:03.292Z,99381.00
2022-08-28T08:44:35.479Z,99380.47
2022-08-28T08:47:14.914Z,99371.69
2022-08-28T08:49:51.074Z,99379.31
2022-08-28T08:52:35.914Z,99377.28
2022-08-28T08:55:20.179Z,99376.88
2022-08-28T08:57:54.338Z,99386.53
2022-08-28T09:00:23.940Z,99397.44
2022-08-28T09:03:01.573Z,99393.41
2022-08-28T09:05:50.041Z,99395.13
2022-08-28T09:08:32.865Z,99393.88
2022-08-28T09:11:12.413Z,99396.38
2022-08-28T09:13:49.277Z,99393.09
2022-08-28T09:16:27.802Z,99394.72
2022-08-28T09:18:59.027Z,99400.63
2022-08-28T09:21:30.139Z,99402.28
2022-08-28T09:24:05.511Z,99403.19
2022-08-28T09:26:34.168Z,99404.72
2022-08-28T09:29:05.199Z,99398.63
2022-08-28T09:31:38.061Z,99412.97
2022-08-28T09:34:20.756Z,99413.56
2022-08-28T09:36:48.722Z,99418.34
2022-08-28T09:39:20.479Z,99417.19
2022-08-28T09:42:34.049Z,99416.94
2022-08-28T09:45:14.054Z,99413.31
2022-08-28T09:47:49.746Z,99407.22
2022-08-28T09:50:25.908Z,99415.50
2022-08-28T09:52:56.639Z,99419.09
2022-08-28T09:55:34.518Z,99413.97
2022-08-28T09:58:02.753Z,99416.72
2022-08-28T10:00:34.669Z,99403.41
2022-08-28T10:03:14.502Z,99417.00
2022-08-28T10:05:55.887Z,99410.34
2022-08-28T10:08:34.464Z,99416.50
2022-08-28T10:11:08.481Z,99422.03
2022-08-28T10:13:42.715Z,99415.28
2022-08-28T10:16:26.256Z,99422.41
2022-08-28T10:19:04.168Z,99423.25
2022-08-28T10:21:39.800Z,99419.63
2022-08-28T10:24:27.991Z,99421.63
2022-08-28T10:27:06.356Z,99415.09
2022-08-28T10:29:48.327Z,99418.91
2022-08-28T10:32:43.728Z,99418.59
2022-08-28T10:35:19.109Z,99410.97
2022-08-28T10:37:58.489Z,99407.88
2022-08-28T10:40:30.507Z,99406.28
2022-08-28T10:43:04.814Z,99402.50
2022-08-28T10:45:35.349Z,99400.28
2022-08-28T10:48:20.879Z,99393.25
2022-08-28T10:50:54.057Z,99396.59
2022-08-28T10:53:27.271Z,99395.06
2022-08-28T10:55:58.212Z,99396.59
2022-08-28T10:58:28.181Z,99398.25
2022-08-28T11:00:58.510Z,99390.81
2022-08-28T11:03:36.412Z,99396.31
2022-08-28T11:06:14.047Z,99393.25
2022-08-28T11:08:41.975Z,99391.47
2022-08-28T11:11:14.794Z,99395.19
2022-08-28T11:13:57.754Z,99394.50
2022-08-28T11:16:37.974Z,99390.75
2022-08-28T11:19:27.420Z,99380.50
2022-08-28T11:22:04.453Z,99389.38
2022-08-28T11:24:47.024Z,99381.91
2022-08-28T11:27:26.915Z,99391.94
2022-08-28T11:30:16.036Z,99387.56
2022-08-28T11:33:10.969Z,99393.13
2022-08-28T11:35:56.846Z,99386.22
2022-08-28T11:39:13.815Z,99390.16
2022-08-28T11:42:32.075Z,99379.34
2022-08-28T11:45:00.583Z,99385.38
2022-08-28T11:47:44.731Z,99383.41
2022-08-28T11:50:18.491Z,99387.25
2022-08-28T11:53:18.961Z,99389.41
2022-08-28T11:56:13.585Z,99375.63
2022-08-28T11:58:57.974Z,99379.66
2022-08-28T12:01:32.291Z,99382.16
2022-08-28T12:04:08.080Z,99374.53
2022-08-28T12:06:55.777Z,99379.53
2022-08-28T12:09:44.839Z,99367.16
2022-08-28T12:12:43.986Z,99375.63
2022-08-28T12:15:40.645Z,99372.44
2022-08-28T12:18:16.873Z,99369.13
2022-08-28T12:21:00.986Z,99366.41
2022-08-28T12:23:37.081Z,99366.06
2022-08-28T12:26:08.168Z,99365.09
2022-08-28T12:28:44.740Z,99365.66
2022-08-28T12:31:57.121Z,99361.47
2022-08-28T12:34:35.466Z,99361.06
2022-08-28T12:37:05.189Z,99364.66
2022-08-28T12:39:34.381Z,99366.88
2022-08-28T12:42:03.873Z,99347.88
2022-08-28T12:44:33.676Z,99348.97
2022-08-28T12:47:02.981Z,99355.72
2022-08-28T12:49:34.908Z,99335.97
2022-08-28T12:52:16.721Z,99334.25
2022-08-28T12:54:46.120Z,99333.31
2022-08-28T12:57:16.940Z,99329.09
2022-08-28T12:59:46.918Z,99331.03
2022-08-28T13:02:25.980Z,99333.06
2022-08-28T13:04:57.432Z,99331.66
2022-08-28T13:07:29.464Z,99323.84
2022-08-28T13:10:00.539Z,99326.25
2022-08-28T13:12:55.133Z,99321.91
2022-08-28T13:15:43.445Z,99317.94
2022-08-28T13:18:51.425Z,99320.25
2022-08-28T13:21:37.353Z,99301.63
2022-08-28T13:24:26.146Z,99313.75
2022-08-28T13:27:02.267Z,99306.59
2022-08-28T13:29:30.912Z,99299.88
2022-08-28T13:32:01.991Z,99302.97
2022-08-28T13:34:33.174Z,99304.22
2022-08-28T13:37:02.799Z,99300.19
2022-08-28T13:39:34.038Z,99302.13
2022-08-28T13:42:07.027Z,99311.25
2022-08-28T13:44:37.682Z,99303.84
2022-08-28T13:47:07.706Z,99312.66
2022-08-28T13:49:37.208Z,99309.50
2022-08-28T13:52:07.893Z,99306.28
2022-08-28T13:54:38.155Z,99305.97
2022-08-28T13:57:10.460Z,99307.16
2022-08-28T13:59:38.359Z,99306.97
2022-08-28T14:02:26.955Z,99306.56
2022-08-28T14:04:56.243Z,99310.75
2022-08-28T14:07:24.148Z,99309.47
2022-08-28T14:09:56.278Z,99302.41
2022-08-28T14:12:32.705Z,99302.97
2022-08-28T14:15:02.153Z,99296.53
2022-08-28T14:17:30.274Z,99291.06
2022-08-28T14:20:00.689Z,99299.16
2022-08-28T14:22:28.918Z,99294.16
2022-08-28T14:24:56.802Z,99294.06
2022-08-28T14:27:24.674Z,99286.13
2022-08-28T14:29:53.302Z,99287.91
2022-08-28T14:32:21.538Z,99286.69
2022-08-28T14:34:50.561Z,99293.03
2022-08-28T14:37:20.454Z,99296.63
2022-08-28T14:39:50.451Z,99292.38
2022-08-28T14:42:19.298Z,99291.09
2022-08-28T14:44:47.458Z,99292.94
2022-08-28T14:47:15.437Z,99291.78
2022-08-28T14:49:43.374Z,99291.91
2022-08-28T14:52:12.022Z,99295.19
2022-08-28T14:54:41.340Z,99284.25
2022-08-28T14:57:09.292Z,99283.41
2022-08-28T14:59:37.165Z,99281.34
2022-08-28T15:02:05.488Z,99281.56
2022-08-28T15:04:37.688Z,99282.06
2022-08-28T15:07:08.027Z,99279.19
2022-08-28T15:09:37.566Z,99280.13
2022-08-28T15:12:07.353Z,99277.44
2022-08-28T15:14:35.599Z,99280.56
2022-08-28T15:17:04.124Z,99272.75
2022-08-28T15:19:32.515Z,99271.38
2022-08-28T15:22:01.554Z,99278.41
2022-08-28T15:24:33.077Z,99284.81
2022-08-28T15:27:01.628Z,99286.28
2022-08-28T15:29:31.080Z,99284.69
2022-08-28T15:32:00.665Z,99281.53
2022-08-28T15:34:29.313Z,99279.69
2022-08-28T15:36:58.019Z,99277.28
2022-08-28T15:39:45.186Z,99283.19
2022-08-28T15:42:14.148Z,99286.19
2022-08-28T15:44:43.503Z,99275.50
2022-08-28T15:47:12.558Z,99273.38
2022-08-28T15:49:49.931Z,99270.16
2022-08-28T15:52:20.491Z,99275.78
2022-08-28T15:54:49.538Z,99280.22
2022-08-28T15:57:17.910Z,99279.63
2022-08-28T15:59:50.332Z,99282.22
2022-08-28T16:02:19.555Z,99279.63
2022-08-28T16:04:47.615Z,99288.22
2022-08-28T16:07:15.901Z,99286.13
2022-08-28T16:09:43.864Z,99293.97
2022-08-28T16:12:11.773Z,99290.41
2022-08-28T16:14:39.782Z,99285.72
2022-08-28T16:17:10.799Z,99292.53
2022-08-28T16:19:39.832Z,99282.88
2022-08-28T16:22:07.843Z,99282.53
2022-08-28T16:24:35.968Z,99289.25
2022-08-28T16:27:04.401Z,99291.53
2022-08-28T16:29:34.561Z,99275.69
2022-08-28T16:32:05.099Z,99291.41
2022-08-28T16:34:34.896Z,99285.25
2022-08-28T16:37:05.686Z,99289.78
2022-08-28T16:39:36.313Z,99299.84
2022-08-28T16:42:04.399Z,99288.09
2022-08-28T16:44:32.348Z,99295.94
2022-08-28T16:47:00.274Z,99306.53
2022-08-28T16:49:28.219Z,99299.13
2022-08-28T16:51:57.460Z,99306.03
2022-08-28T16:54:25.349Z,99316.53
2022-08-28T16:56:53.284Z,99313.72
2022-08-28T16:59:23.303Z,99313.28
2022-08-28T17:01:52.944Z,99315.19
2022-08-28T17:04:22.110Z,99318.78
2022-08-28T17:06:50.447Z,99320.78
2022-08-28T17:09:21.128Z,99324.25
2022-08-28T17:11:52.029Z,99329.44
2022-08-28T17:14:20.584Z,99332.84
2022-08-28T17:16:48.872Z,99333.81
2022-08-28T17:19:16.752Z,99335.88
2022-08-28T17:22:02.029Z,99331.31
2022-08-28T17:24:31.893Z,99335.22
2022-08-28T17:27:05.173Z,99340.00
2022-08-28T17:29:34.096Z,99342.91
2022-08-28T17:32:02.195Z,99348.19
2022-08-28T17:34:30.759Z,99348.69
2022-08-28T17:36:58.750Z,99348.81
2022-08-28T17:39:26.668Z,99361.72
2022-08-28T17:41:56.565Z,99360.38
2022-08-28T17:44:24.620Z,99364.97
2022-08-28T17:46:52.683Z,99361.81
2022-08-28T17:49:20.573Z,99374.16
2022-08-28T17:51:48.452Z,99368.53
2022-08-28T17:54:21.325Z,99371.94
2022-08-28T17:56:50.116Z,99379.88
2022-08-28T17:59:20.669Z,99388.50
2022-08-28T18:01:49.838Z,99377.63
2022-08-28T18:04:23.958Z,99386.31
2022-08-28T18:06:54.141Z,99383.19
2022-08-28T18:09:23.353Z,99390.88
2022-08-28T18:11:51.695Z,99386.69
2022-08-28T18:14:21.587Z,99383.44
2022-08-28T18:16:49.641Z,99389.25
2022-08-28T18:19:17.629Z,99394.50
2022-08-28T18:21:45.766Z,99395.78
2022-08-28T18:24:14.203Z,99380.22
2022-08-28T18:26:43.396Z,99396.91
2022-08-28T18:29:11.574Z,99400.38
2022-08-28T18:31:41.398Z,99404.69
2022-08-28T18:34:10.819Z,99400.56
2022-08-28T18:36:39.902Z,99407.25
2022-08-28T18:39:07.977Z,99403.06
2022-08-28T18:41:44.515Z,99408.03
2022-08-28T18:44:14.114Z,99411.25
2022-08-28T18:46:44.667Z,99411.38
2022-08-28T18:49:13.650Z,99409.91
2022-08-28T18:51:42.952Z,99422.84
2022-08-28T18:54:11.247Z,99421.13
2022-08-28T18:56:40.951Z,99426.03
2022-08-28T18:59:09.361Z,99427.47
2022-08-28T19:01:37.624Z,99424.69
2022-08-28T19:04:07.064Z,99436.50
2022-08-28T19:06:36.056Z,99445.78
2022-08-28T19:09:05.491Z,99441.47
2022-08-28T19:11:35.780Z,99443.19
2022-08-28T19:14:04.260Z,99444.03
2022-08-28T19:16:33.376Z,99421.31
2022-08-28T19:19:01.638Z,99433.88
2022-08-28T19:21:31.398Z,99432.31
2022-08-28T19:23:59.290Z,99432.00
2022-08-28T19:26:28.069Z,99436.63
2022-08-28T19:28:56.316Z,99435.94
2022-08-28T19:31:25.720Z,99439.41
2022-08-28T19:33:54.083Z,99434.22
2022-08-28T19:36:22.365Z,99437.00
2022-08-28T19:38:51.650Z,99438.22
2022-08-28T19:41:19.733Z,99451.09
2022-08-28T19:43:47.613Z,99457.00
2022-08-28T19:46:19.640Z,99452.59
2022-08-28T19:48:48.582Z,99453.34
2022-08-28T19:51:17.410Z,99458.41
2022-08-28T19:53:45.697Z,99462.69
2022-08-28T19:56:14.962Z,99467.69
2022-08-28T19:58:42.867Z,99461.94
2022-08-28T20:01:11.335Z,99466.44
2022-08-28T20:03:40.164Z,99461.34
2022-08-28T20:06:08.639Z,99467.38
2022-08-28T20:08:36.558Z,99474.91
2022-08-28T20:11:04.890Z,99474.25
2022-08-28T20:13:34.232Z,99477.94
2022-08-28T20:16:04.741Z,99480.63
2022-08-28T20:18:33.354Z,99485.72
2022-08-28T20:21:01.902Z,99486.56
2022-08-28T20:23:29.808Z,99491.00
2022-08-28T20:25:57.771Z,99485.66
2022-08-28T20:28:25.643Z,99488.63
2022-08-28T20:30:54.961Z,99497.06
2022-08-28T20:33:23.121Z,99503.69
2022-08-28T20:36:00.525Z,99500.91
2022-08-28T20:38:28.449Z,99508.41
2022-08-28T20:41:03.936Z,99510.78
2022-08-28T20:43:31.965Z,99502.25
2022-08-28T20:46:01.706Z,99516.94
2022-08-28T20:48:33.749Z,99508.50
2022-08-28T20:51:02.112Z,99518.63
2022-08-28T20:53:37.428Z,99513.50
2022-08-28T20:56:09.921Z,99513.50
2022-08-28T20:58:38.796Z,99512.75
2022-08-28T21:01:08.484Z,99513.91
2022-08-28T21:03:36.472Z,99513.16
2022-08-28T21:06:04.437Z,99515.72
2022-08-28T21:08:32.360Z,99513.41
2022-08-28T21:11:00.525Z,99507.69
2022-08-28T21:13:28.392Z,99509.47
2022-08-28T21:15:56.253Z,99513.63
2022-08-28T21:18:25.519Z,99514.41
2022-08-28T21:20:55.688Z,99521.19
2022-08-28T21:23:24.400Z,99509.22
2022-08-28T21:25:52.276Z,99505.03
2022-08-28T21:28:20.319Z,99516.09
2022-08-28T21:30:50.781Z,99519.41
2022-08-28T21:33:21.872Z,99520.19
2022-08-28T21:35:52.378Z,99510.16
2022-08-28T21:38:21.052Z,99518.88
2022-08-28T21:40:49.600Z,99517.44
2022-08-28T21:43:17.540Z,99518.66
2022-08-28T21:45:45.502Z,99511.13
2022-08-28T21:48:13.826Z,99509.78
2022-08-28T21:50:44.214Z,99508.16
2022-08-28T21:53:16.426Z,99512.38
2022-08-28T21:55:50.821Z,99507.28
2022-08-28T21:58:20.424Z,99515.50
2022-08-28T22:00:49.976Z,99513.06
2022-08-28T22:03:18.532Z,99508.94
2022-08-28T22:05:47.863Z,99503.19
2022-08-28T22:08:18.765Z,99504.84
2022-08-28T22:10:47.820Z,99509.03
2022-08-28T22:13:17.158Z,99497.75
2022-08-28T22:15:46.883Z,99501.00
2022-08-28T22:18:16.606Z,99500.13
2022-08-28T22:21:03.665Z,99505.16
2022-08-28T22:23:35.473Z,99508.50
2022-08-28T22:26:04.904Z,99509.38
2022-08-28T22:28:33.157Z,99506.91
2022-08-28T22:31:02.049Z,99506.91
2022-08-28T22:33:30.943Z,99518.97
2022-08-28T22:35:59.709Z,99511.44
2022-08-28T22:38:28.148Z,99514.78
2022-08-28T22:40:57.965Z,99510.50
2022-08-28T22:43:26.023Z,99512.44
2022-08-28T22:45:54.007Z,99518.53
2022-08-28T22:48:21.920Z,99503.28
2022-08-28T22:50:50.033Z,99504.88
2022-08-28T22:53:18.760Z,99507.59
2022-08-28T22:55:46.598Z,99500.22
2022-08-28T22:58:15.885Z,99497.78
2022-08-28T23:00:43.906Z,99504.50
2022-08-28T23:03:11.891Z,99504.50
2022-08-28T23:05:39.884Z,99514.78
2022-08-28T23:08:07.819Z,99516.41
2022-08-28T23:10:57.375Z,99523.16
2022-08-28T23:13:25.053Z,99528.41
2022-08-28T23:15:53.049Z,99527.06
2022-08-28T23:18:23.091Z,99532.50
2022-08-28T23:20:55.517Z,99529.25
2022-08-28T23:23:25.638Z,99530.97
2022-08-28T23:25:53.530Z,99527.50
2022-08-28T23:28:21.550Z,99531.75
2022-08-28T23:30:50.831Z,99531.78
2022-08-28T23:33:23.753Z,99532.59
2022-08-28T23:35:52.250Z,99525.75
2022-08-28T23:38:20.360Z,99530.81
2022-08-28T23:40:49.016Z,99530.06
2022-08-28T23:43:19.220Z,99534.25
2022-08-28T23:45:47.389Z,99541.91
2022-08-28T23:48:17.520Z,99540.25
2022-08-28T23:50:45.393Z,99544.53
2022-08-28T23:53:13.243Z,99543.88
2022-08-28T23:55:44.540Z,99521.31
2022-08-28T23:58:12.559Z,99532.22
